»·PEaware :: N851TX CYSU-KIWI

N851TX :: CYSU-KIWI

FLIGHT INFORMATION

Flight Status: Arrived
Operator: Privately registered:
United States
More flights under this callsign
Pilot: Andrew J. (13363)
Aircraft: Unknown
(TBM9)
More flights by this aircraft type
Origin: CYSU Summerside
Canada
Destination: KIWI Wiscasset
United States
More flights between these airports :: More routes between these airports
Route: YYOG J573 SEAER
File this flight plan on PilotEdge
Remarks:
Altitude:
(Current/Filed)
30,000ft
Speed:
(Current/Filed)
307kts
Departed: 20-Jul-18 11:08 PM
Arrived: 21-Jul-18 12:18 AM
Distance/Time
Traveled:
290nm/1:10
Distance/Time
To Go:
Arrived

Flight Plot

Page will automatically refresh every two minutes.

Flight plan parsing failed; only flown route is shown


Map Options




Map Legend


Flown Route
Filed Route
Departure Airport
Arrival Airport
Navaid (VOR, NDB)
Fix

Horizontal Profiles

Position Reports

Time Latitude Longitude Heading Altitude Ground
Speed
20-Jul-18 23:05 46.440223 -63.831048 307 59ft 0kts
20-Jul-18 23:06 46.440223 -63.831048 307 59ft 0kts
20-Jul-18 23:07 46.440223 -63.831048 307 59ft 0kts
20-Jul-18 23:08 46.441669 -63.830258 14 59ft 15kts
20-Jul-18 23:09 46.431784 -63.842269 212 162ft 127kts
20-Jul-18 23:10 46.397497 -63.833872 153 2096ft 139kts
20-Jul-18 23:11 46.363378 -63.855855 212 4023ft 144kts
20-Jul-18 23:12 46.330094 -63.889572 212 5790ft 149kts
20-Jul-18 23:13 46.295902 -63.924987 212 7408ft 155kts
20-Jul-18 23:14 46.260515 -63.962190 212 8898ft 160kts
20-Jul-18 23:15 46.224060 -64.000795 212 10279ft 167kts
20-Jul-18 23:16 46.186349 -64.040968 212 12047ft 171kts
20-Jul-18 23:17 46.147935 -64.082463 212 14039ft 174kts
20-Jul-18 23:18 46.108848 -64.123646 210 15913ft 177kts
20-Jul-18 23:19 46.068519 -64.164943 210 17675ft 182kts
20-Jul-18 23:20 46.027620 -64.206751 210 19634ft 182kts
20-Jul-18 23:21 45.986118 -64.249050 210 21513ft 185kts
20-Jul-18 23:22 45.943970 -64.291889 211 23288ft 189kts
20-Jul-18 23:23 45.911624 -64.353234 236 25153ft 199kts
20-Jul-18 23:24 45.887207 -64.424683 239 26877ft 202kts
20-Jul-18 23:25 45.863339 -64.498098 239 28432ft 205kts
20-Jul-18 23:26 45.839063 -64.572943 240 29719ft 213kts
20-Jul-18 23:27 45.812802 -64.653697 240 30275ft 243kts
20-Jul-18 23:28 45.782355 -64.747149 240 30266ft 272kts
20-Jul-18 23:29 45.749335 -64.847989 241 30260ft 286kts
20-Jul-18 23:30 45.714820 -64.952972 242 30258ft 295kts
20-Jul-18 23:31 45.679531 -65.059941 243 30257ft 302kts
20-Jul-18 23:32 45.643382 -65.169123 243 30260ft 305kts
20-Jul-18 23:33 45.606836 -65.278958 243 30264ft 307kts
20-Jul-18 23:34 45.569976 -65.389270 243 30267ft 309kts
20-Jul-18 23:35 45.532805 -65.500058 243 30266ft 311kts
20-Jul-18 23:36 45.495396 -65.611061 243 30265ft 311kts
20-Jul-18 23:37 45.457976 -65.721657 243 30265ft 311kts
20-Jul-18 23:38 45.420377 -65.832316 243 30265ft 311kts
20-Jul-18 23:39 45.380096 -65.941507 240 30265ft 311kts
20-Jul-18 23:40 45.338540 -66.049392 240 30265ft 311kts
20-Jul-18 23:41 45.297111 -66.156489 240 30264ft 311kts
20-Jul-18 23:42 45.255287 -66.264191 240 30263ft 311kts
20-Jul-18 23:43 45.213389 -66.371669 240 30256ft 312kts
20-Jul-18 23:44 45.171406 -66.478952 240 30255ft 311kts
20-Jul-18 23:45 45.136416 -66.568030 240 30253ft 311kts
20-Jul-18 23:46 45.094395 -66.674679 239 30246ft 311kts
20-Jul-18 23:47 45.052193 -66.781346 238 30245ft 311kts
20-Jul-18 23:48 45.009922 -66.887793 238 30242ft 310kts
20-Jul-18 23:49 44.967656 -66.993822 237 30231ft 310kts
20-Jul-18 23:50 44.925102 -67.100003 238 30238ft 315kts
20-Jul-18 23:51 44.881541 -67.208406 240 30247ft 320kts
20-Jul-18 23:52 44.837440 -67.317908 240 30254ft 323kts
20-Jul-18 23:53 44.792908 -67.427923 240 30256ft 324kts
20-Jul-18 23:54 44.748244 -67.537825 240 30257ft 325kts
20-Jul-18 23:55 44.703397 -67.647744 240 30257ft 325kts
20-Jul-18 23:56 44.658478 -67.757425 239 30255ft 325kts
20-Jul-18 23:57 44.613338 -67.867205 239 30255ft 325kts
20-Jul-18 23:58 44.568157 -67.976661 239 30256ft 325kts
20-Jul-18 23:59 44.522814 -68.086088 239 30256ft 325kts
21-Jul-18 00:00 44.477230 -68.195675 239 30256ft 325kts
21-Jul-18 00:01 44.431835 -68.304380 239 30257ft 325kts
21-Jul-18 00:02 44.387694 -68.414659 243 30130ft 330kts
21-Jul-18 00:03 44.343769 -68.535360 243 28237ft 360kts
21-Jul-18 00:04 44.298253 -68.660136 242 26293ft 366kts
21-Jul-18 00:05 44.252088 -68.786108 242 24304ft 362kts
21-Jul-18 00:06 44.206831 -68.909089 241 22306ft 351kts
21-Jul-18 00:07 44.163187 -69.027100 241 20299ft 336kts
21-Jul-18 00:08 44.120955 -69.140785 241 18299ft 327kts
21-Jul-18 00:09 44.079705 -69.251460 241 16319ft 314kts
21-Jul-18 00:10 44.042283 -69.351427 241 13836ft 283kts
21-Jul-18 00:11 44.019991 -69.450415 291 10716ft 279kts
21-Jul-18 00:12 44.055599 -69.538400 255 6269ft 280kts
21-Jul-18 00:13 44.012198 -69.619108 202 2667ft 243kts
21-Jul-18 00:14 43.982304 -69.660510 265 1625ft 139kts
21-Jul-18 00:15 43.968433 -69.700362 232 224ft 100kts
21-Jul-18 00:16 43.946990 -69.738920 228 1231ft 175kts
21-Jul-18 00:17 43.911709 -69.760383 87 1489ft 189kts
21-Jul-18 00:18 43.946299 -69.733567 33 601ft 108kts
21-Jul-18 00:19 43.962099 -69.711332 49 73ft 38kts
21-Jul-18 00:20 43.964210 -69.709208 230 73ft 11kts
21-Jul-18 00:21 43.963478 -69.711016 320 73ft 0kts
21-Jul-18 00:22 43.963478 -69.711016 320 73ft 0kts
21-Jul-18 00:23 43.963478 -69.711016 320 73ft 0kts
21-Jul-18 00:24 43.963478 -69.711016 320 73ft 0kts
21-Jul-18 00:25 43.963478 -69.711016 320 73ft 0kts
21-Jul-18 00:26 43.963478 -69.711016 320 73ft 0kts
21-Jul-18 00:27 43.963478 -69.711016 320 73ft 0kts
21-Jul-18 00:28 43.963478 -69.711016 320 73ft 0kts
21-Jul-18 00:29 43.963478 -69.711016 320 73ft 0kts
21-Jul-18 00:30 43.963478 -69.711016 320 73ft 0kts
21-Jul-18 00:31 43.963478 -69.711016 320 73ft 0kts
21-Jul-18 00:32 43.963478 -69.711016 320 73ft 0kts
21-Jul-18 00:33 43.962651 -69.711986 225 73ft 9kts

Navigation Log

Ident Type
Flight plan parsing failed, navigation log unavailable